Time;durP1;ratioP1;P1;durP2;ratioP2;P2;SDS_P1;SDS_P2;PMS_P1;PMS_P2;Temp;Humidity;BMP_temperature;BMP_pressure;BME280_temperature;BME280_humidity;BME280_pressure;Samples;Min_cycle;Max_cycle;Signal;HPM_P1;HPM_P2
2023/10/27 00:00:53;;;;;;;12.75;8.18;;;;;;;20.34;61.00;98823.73;2269378;77;50242;-76
2023/10/27 00:03:55;;;;;;;13.78;8.80;;;;;;;20.33;60.92;98820.77;2273806;75;51160;-76
2023/10/27 00:06:58;;;;;;;11.93;7.75;;;;;;;20.34;60.92;98815.68;2362914;74;50624;-75
2023/10/27 00:10:00;;;;;;;15.72;8.50;;;;;;;20.31;60.89;98822.34;2362966;74;50230;-75
2023/10/27 00:13:02;;;;;;;13.18;8.00;;;;;;;20.30;60.92;98818.04;2335187;75;50407;-76
2023/10/27 00:16:11;;;;;;;16.02;8.10;;;;;;;20.32;61.02;98813.25;2366706;74;50732;-77
2023/10/27 00:19:13;;;;;;;13.08;8.05;;;;;;;20.31;61.08;98810.26;2336123;75;51061;-77
2023/10/27 00:22:15;;;;;;;15.48;9.25;;;;;;;20.32;61.08;98806.53;2335832;75;52405;-76
2023/10/27 00:25:18;;;;;;;14.35;8.23;;;;;;;20.34;61.02;98802.25;2338700;74;50256;-76
2023/10/27 00:28:20;;;;;;;12.55;7.90;;;;;;;20.34;60.98;98803.59;2332349;74;51178;-76
2023/10/27 00:31:22;;;;;;;14.07;8.03;;;;;;;20.33;60.94;98810.03;2313937;75;51546;-77
2023/10/27 00:34:24;;;;;;;11.75;7.97;;;;;;;20.32;60.93;98798.98;2282840;76;50178;-77
2023/10/27 00:37:27;;;;;;;14.28;8.00;;;;;;;20.32;60.88;98803.84;2314203;75;51529;-76
2023/10/27 00:40:29;;;;;;;13.80;8.28;;;;;;;20.30;60.91;98801.11;2263517;76;50087;-77
2023/10/27 00:43:31;;;;;;;15.70;8.03;;;;;;;20.29;60.92;98792.22;2288031;76;51177;-77
2023/10/27 00:46:33;;;;;;;11.28;7.90;;;;;;;20.26;60.95;98791.89;2263486;75;50636;-77
2023/10/27 00:49:35;;;;;;;15.13;8.80;;;;;;;20.30;61.04;98776.94;2319857;76;51434;-77
2023/10/27 00:52:38;;;;;;;11.95;7.42;;;;;;;20.29;61.09;98772.08;2287930;76;52372;-76
2023/10/27 00:55:43;;;;;;;13.93;8.23;;;;;;;20.33;60.98;98769.74;2319951;76;51333;-77
2023/10/27 00:58:45;;;;;;;;;;;;;;;20.33;60.95;98768.40;2322794;75;50266;-77
2023/10/27 01:01:47;;;;;;;11.53;7.70;;;;;;;20.34;60.87;98767.33;2313093;76;52549;-77
2023/10/27 01:04:50;;;;;;;11.70;7.72;;;;;;;20.33;60.84;98772.42;2298372;75;51537;-77
2023/10/27 01:07:52;;;;;;;12.23;7.65;;;;;;;20.32;60.84;98762.72;2358749;74;50706;-77
2023/10/27 01:10:55;;;;;;;11.25;7.87;;;;;;;20.31;60.85;98765.94;2358746;75;50100;-77
2023/10/27 01:13:57;;;;;;;11.70;7.97;;;;;;;20.30;60.82;98765.66;2326441;75;51541;-77
2023/10/27 01:16:59;;;;;;;15.48;8.35;;;;;;;20.28;60.84;98769.64;2326276;74;52314;-77
2023/10/27 01:20:01;;;;;;;12.88;7.67;;;;;;;20.25;60.90;98759.39;2326365;75;49916;-77
2023/10/27 01:23:04;;;;;;;10.48;7.15;;;;;;;20.29;60.92;98761.86;2325657;75;50228;-76
2023/10/27 01:26:06;;;;;;;12.95;7.65;;;;;;;20.30;60.91;98752.77;2358886;75;50705;-77
2023/10/27 01:29:08;;;;;;;11.78;7.80;;;;;;;20.31;60.94;98758.41;2352956;74;50585;-77
2023/10/27 01:32:11;;;;;;;9.38;7.20;;;;;;;20.33;60.87;98752.28;2315540;75;50599;-77
2023/10/27 01:35:13;;;;;;;13.10;7.65;;;;;;;20.33;60.84;98752.28;2288595;75;51438;-77
2023/10/27 01:38:15;;;;;;;10.82;7.97;;;;;;;20.32;60.79;98740.73;2358805;74;50301;-78
2023/10/27 01:41:17;;;;;;;12.18;7.33;;;;;;;20.32;60.77;98743.92;2275979;75;51189;-77
2023/10/27 01:44:20;;;;;;;10.53;7.53;;;;;;;20.32;60.71;98743.41;2326970;75;51634;-77
2023/10/27 01:47:22;;;;;;;10.70;7.83;;;;;;;20.31;60.72;98735.59;2353217;74;50791;-77
2023/10/27 01:50:24;;;;;;;11.70;8.08;;;;;;;20.30;60.70;98732.62;2326297;75;52484;-77
2023/10/27 01:53:26;;;;;;;13.05;8.10;;;;;;;20.26;60.82;98727.44;2352846;75;51412;-78
2023/10/27 01:56:30;;;;;;;10.80;7.40;;;;;;;20.30;60.78;98727.25;2300878;74;51503;-77
2023/10/27 01:59:32;;;;;;;11.25;7.67;;;;;;;20.32;60.82;98722.44;2327188;75;49989;-77
2023/10/27 02:02:36;;;;;;;12.95;7.85;;;;;;;20.35;60.69;98720.09;2315030;75;50220;-77
2023/10/27 02:05:41;;;;;;;10.13;7.65;;;;;;;20.34;60.69;98719.80;2314589;75;52598;-77
2023/10/27 02:08:43;;;;;;;;;;;;;;;20.34;60.68;98725.70;2361361;74;51539;-77
2023/10/27 02:11:45;;;;;;;9.75;7.30;;;;;;;20.33;60.67;98733.48;2359087;75;51448;-76
2023/10/27 02:14:47;;;;;;;13.38;7.62;;;;;;;20.33;60.66;98734.83;2325862;75;50261;-77
2023/10/27 02:17:49;;;;;;;13.38;7.83;;;;;;;20.30;60.65;98727.25;2352770;74;51426;-76
2023/10/27 02:20:52;;;;;;;10.60;8.00;;;;;;;20.30;60.59;98732.09;2352926;74;51543;-76
2023/10/27 02:23:54;;;;;;;11.30;7.53;;;;;;;20.27;60.65;98726.37;2325744;75;52352;-75
2023/10/27 02:26:58;;;;;;;11.90;7.75;;;;;;;20.24;60.74;98719.61;2352754;74;50673;-77
2023/10/27 02:30:00;;;;;;;11.12;8.08;;;;;;;20.33;60.62;98722.20;2301098;75;50486;-76
2023/10/27 02:33:03;;;;;;;12.23;8.18;;;;;;;20.35;60.63;98720.63;2271244;76;50386;-76
2023/10/27 02:36:06;;;;;;;11.53;7.75;;;;;;;20.33;60.59;98731.61;2283132;77;50671;-77
2023/10/27 02:39:08;;;;;;;14.70;8.03;;;;;;;20.34;60.55;98727.84;2255428;77;51258;-77
2023/10/27 02:42:11;;;;;;;12.13;7.15;;;;;;;20.32;60.57;98727.30;2313545;76;51611;-77
2023/10/27 02:45:13;;;;;;;10.35;7.60;;;;;;;20.31;60.58;98735.59;2305856;76;49988;-76
2023/10/27 02:48:15;;;;;;;14.10;7.72;;;;;;;20.31;60.56;98735.59;2255131;77;51417;-76
2023/10/27 02:51:18;;;;;;;12.25;7.62;;;;;;;20.30;60.57;98743.37;2280292;77;50378;-76
2023/10/27 02:54:21;;;;;;;11.28;7.83;;;;;;;20.28;60.54;98745.47;2313316;76;50684;-77
2023/10/27 02:57:23;;;;;;;11.60;8.28;;;;;;;20.26;60.62;98748.92;2279980;77;52492;-77
2023/10/27 03:00:25;;;;;;;11.43;7.53;;;;;;;20.25;60.66;98740.05;2280240;77;50596;-77
2023/10/27 03:03:27;;;;;;;11.40;7.72;;;;;;;20.29;60.63;98744.41;2314967;75;50059;-77
2023/10/27 03:06:30;;;;;;;13.32;7.95;;;;;;;20.29;60.66;98743.06;2293818;75;51751;-77
2023/10/27 03:09:32;;;;;;;16.15;8.13;;;;;;;20.32;60.59;98750.64;2265142;76;50088;-77
2023/10/27 03:12:34;;;;;;;12.35;8.05;;;;;;;20.33;60.52;98745.56;2321333;76;50395;-77
2023/10/27 03:15:36;;;;;;;10.25;6.78;;;;;;;20.34;60.48;98749.88;2315949;76;50291;-77
2023/10/27 03:18:38;;;;;;;14.80;7.85;;;;;;;20.33;60.48;98746.91;2321806;75;50718;-77
2023/10/27 03:21:41;;;;;;;10.63;7.12;;;;;;;20.31;60.46;98743.64;2264202;76;52459;-77
2023/10/27 03:24:43;;;;;;;15.38;7.67;;;;;;;20.29;60.49;98746.56;2290294;76;51465;-76
2023/10/27 03:27:45;;;;;;;12.75;7.87;;;;;;;20.30;60.44;98747.40;2265315;76;51459;-76
2023/10/27 03:30:48;;;;;;;13.05;7.47;;;;;;;20.27;60.47;98743.83;2290452;76;51651;-76
2023/10/27 03:33:51;;;;;;;10.40;6.92;;;;;;;20.26;60.53;98743.55;2316930;75;50680;-76
2023/10/27 03:36:54;;;;;;;10.50;7.97;;;;;;;20.28;60.57;98745.47;2328465;74;51602;-76
2023/10/27 03:39:56;;;;;;;14.20;7.83;;;;;;;20.29;60.52;98741.19;2357675;75;50623;-77
2023/10/27 03:42:58;;;;;;;10.85;7.90;;;;;;;20.31;60.51;98742.30;2360778;75;50827;-77
2023/10/27 03:46:01;;;;;;;10.90;7.53;;;;;;;20.31;60.48;98740.95;2326678;75;51050;-76
2023/10/27 03:49:03;;;;;;;10.58;7.28;;;;;;;20.31;60.42;98740.95;2354206;74;51401;-76
2023/10/27 03:52:05;;;;;;;10.38;7.47;;;;;;;20.28;60.43;98736.08;2362907;75;50623;-77
2023/10/27 03:55:11;;;;;;;11.88;7.53;;;;;;;20.30;60.41;98740.69;2276041;75;52464;-77
2023/10/27 03:58:16;;;;;;;10.95;7.22;;;;;;;20.29;60.35;98728.30;2302178;75;22599;-77
2023/10/27 04:01:18;;;;;;;12.78;7.08;;;;;;;20.26;60.41;98730.93;2357099;75;50725;-76
2023/10/27 04:04:20;;;;;;;11.95;7.30;;;;;;;20.25;60.41;98728.50;2286823;76;51582;-76
2023/10/27 04:07:23;;;;;;;10.03;7.33;;;;;;;20.23;60.52;98729.55;2289147;76;50340;-77
2023/10/27 04:10:25;;;;;;;10.13;7.30;;;;;;;20.26;60.49;98724.75;2288627;76;51036;-76
2023/10/27 04:13:27;;;;;;;10.50;7.65;;;;;;;20.30;60.43;98721.88;2319705;76;50645;-76
2023/10/27 04:16:30;;;;;;;10.05;7.35;;;;;;;20.32;60.37;98716.55;2238745;75;52472;-76
2023/10/27 04:19:32;;;;;;;9.23;6.90;;;;;;;20.32;60.34;98727.30;2313364;76;51243;-77
2023/10/27 04:22:34;;;;;;;9.53;7.45;;;;;;;20.31;60.33;98724.31;2286708;76;50776;-77
2023/10/27 04:25:38;;;;;;;10.53;7.08;;;;;;;20.31;60.28;98728.87;2318396;76;51448;-76
2023/10/27 04:28:40;;;;;;;11.97;7.35;;;;;;;20.29;60.27;98729.10;2263136;76;22294;-77
2023/10/27 04:31:42;;;;;;;10.72;7.12;;;;;;;20.30;60.27;98728.59;2317438;76;51611;-77
2023/10/27 04:34:45;;;;;;;11.38;7.20;;;;;;;20.28;60.26;98731.52;2285187;75;51736;-77
2023/10/27 04:37:47;;;;;;;10.75;7.12;;;;;;;20.25;60.30;98721.79;2297658;76;51497;-77
2023/10/27 04:40:51;;;;;;;10.58;7.47;;;;;;;20.26;60.30;98717.50;2279175;75;50756;-76
2023/10/27 04:43:53;;;;;;;8.98;6.55;;;;;;;20.30;60.29;98715.17;2349282;75;22395;-77
2023/10/27 04:46:55;;;;;;;11.15;7.08;;;;;;;20.29;60.38;98715.67;2326054;74;51493;-77
2023/10/27 04:49:57;;;;;;;9.30;6.62;;;;;;;20.31;60.37;98714.10;2300368;75;51583;-77
2023/10/27 04:52:59;;;;;;;11.97;6.85;;;;;;;20.30;60.36;98702.55;2299991;75;51394;-77
2023/10/27 04:56:02;;;;;;;11.15;7.40;;;;;;;20.29;60.48;98704.93;2300389;75;51595;-77
2023/10/27 04:59:04;;;;;;;11.83;7.35;;;;;;;20.29;60.38;98702.24;2326114;75;50986;-77
2023/10/27 05:02:06;;;;;;;15.63;6.95;;;;;;;20.32;60.75;98707.66;2289300;75;49939;-76
2023/10/27 05:05:09;;;;;;;19.42;8.35;;;;;;;20.36;61.29;98704.79;2318703;75;52192;-77
2023/10/27 05:08:11;;;;;;;18.65;7.60;;;;;;;20.30;61.14;98699.05;2287282;76;51649;-78
2023/10/27 05:11:13;;;;;;;19.95;7.75;;;;;;;20.26;61.82;98700.58;2318780;76;51338;-78
2023/10/27 05:14:15;;;;;;;20.30;7.60;;;;;;;20.21;62.31;98700.77;2317592;76;51530;-78
2023/10/27 05:17:18;;;;;;;20.62;7.50;;;;;;;20.28;62.14;98703.84;2280583;77;50279;-78
2023/10/27 05:20:20;;;;;;;20.12;7.70;;;;;;;20.28;62.10;98698.47;2280690;77;51384;-77
2023/10/27 05:23:22;;;;;;;17.48;7.65;;;;;;;20.30;61.96;98695.83;2279104;77;51195;-78
2023/10/27 05:26:25;;;;;;;19.15;8.20;;;;;;;20.33;61.76;98694.00;2280649;75;50679;-77
2023/10/27 05:29:27;;;;;;;19.02;7.08;;;;;;;20.36;61.68;98703.45;2280542;77;51468;-78
2023/10/27 05:32:33;;;;;;;19.42;7.58;;;;;;;20.34;61.65;98693.47;2290228;75;51713;-78
2023/10/27 05:35:35;;;;;;;17.27;7.87;;;;;;;20.35;61.65;98696.45;2343696;75;51528;-77
2023/10/27 05:38:37;;;;;;;15.23;6.58;;;;;;;20.32;61.69;98695.07;2326508;75;51390;-78
2023/10/27 05:41:39;;;;;;;19.57;7.60;;;;;;;20.31;61.71;98688.05;2300342;75;51568;-77
2023/10/27 05:44:42;;;;;;;18.40;7.85;;;;;;;20.31;61.79;98692.61;2352564;75;52234;-78
2023/10/27 05:47:44;;;;;;;17.80;8.05;;;;;;;20.30;61.80;98693.68;2300564;75;50940;-79
2023/10/27 05:50:46;;;;;;;18.07;7.50;;;;;;;20.29;62.15;98696.06;2358979;74;51495;-78
2023/10/27 05:53:48;;;;;;;16.35;7.17;;;;;;;20.30;62.01;98693.15;2358592;75;51447;-78
2023/10/27 05:56:52;;;;;;;35.65;9.23;;;;;;;20.33;61.89;98699.91;2326745;74;49956;-78
2023/10/27 05:59:54;;;;;;;21.50;7.78;;;;;;;20.33;62.39;98697.22;2326927;75;51534;-78
2023/10/27 06:02:56;;;;;;;24.35;8.48;;;;;;;20.32;62.76;98700.44;2346052;75;50624;-78
2023/10/27 06:05:59;;;;;;;20.48;7.85;;;;;;;20.31;62.95;98707.38;2264127;77;50113;-78
2023/10/27 06:09:01;;;;;;;23.45;8.15;;;;;;;20.31;63.04;98703.36;2269682;77;51751;-77
2023/10/27 06:12:03;;;;;;;25.82;8.40;;;;;;;20.34;62.85;98701.52;2273020;77;50727;-77
2023/10/27 06:15:06;;;;;;;31.40;10.15;;;;;;;20.30;63.59;98701.73;2248327;77;50426;-77
2023/10/27 06:18:09;;;;;;;21.52;8.73;;;;;;;20.30;63.60;98706.58;2287843;75;51531;-77
2023/10/27 06:21:11;;;;;;;19.85;8.88;;;;;;;20.37;62.97;98707.75;2262583;77;49435;-77
2023/10/27 06:24:13;;;;;;;27.45;8.88;;;;;;;20.48;62.59;98695.33;2337571;75;51509;-77
2023/10/27 06:27:15;;;;;;;24.95;8.53;;;;;;;20.56;62.19;98701.14;2317837;75;51465;-77
2023/10/27 06:30:20;;;;;;;25.57;8.35;;;;;;;20.59;62.02;98707.36;2217500;78;51500;-78
2023/10/27 06:33:22;;;;;;;18.60;8.10;;;;;;;20.61;61.84;98706.59;2248680;76;22462;-77
2023/10/27 06:36:25;;;;;;;20.27;7.90;;;;;;;20.58;61.85;98713.81;2346952;74;50396;-78
2023/10/27 06:39:28;;;;;;;21.17;7.92;;;;;;;20.59;61.87;98724.83;2326972;75;51521;-77
2023/10/27 06:42:30;;;;;;;20.60;8.08;;;;;;;20.51;62.02;98723.86;2326413;75;50306;-77
2023/10/27 06:45:32;;;;;;;19.15;7.65;;;;;;;20.49;62.08;98725.16;2275466;75;51154;-77
2023/10/27 06:48:34;;;;;;;21.97;8.00;;;;;;;20.45;62.14;98728.34;2326479;75;50313;-77
2023/10/27 06:51:36;;;;;;;20.92;7.55;;;;;;;20.45;62.10;98736.39;2358526;74;50615;-76
2023/10/27 06:54:40;;;;;;;17.02;7.72;;;;;;;20.45;62.07;98742.30;2358336;75;51452;-77
2023/10/27 06:57:42;;;;;;;19.27;7.67;;;;;;;20.54;61.85;98742.20;2300872;75;50186;-77
2023/10/27 07:00:45;;;;;;;20.45;7.85;;;;;;;20.58;61.69;98743.37;2275451;75;52436;-77
2023/10/27 07:03:48;;;;;;;16.27;6.95;;;;;;;20.59;61.58;98744.98;2259247;77;49966;-76
2023/10/27 07:06:50;;;;;;;15.20;7.87;;;;;;;20.57;61.55;98749.78;2290367;76;51585;-77
2023/10/27 07:09:52;;;;;;;20.40;6.97;;;;;;;20.56;61.51;98757.56;2290238;76;51069;-76
2023/10/27 07:12:54;;;;;;;16.48;7.28;;;;;;;20.53;61.56;98756.68;2290023;76;51467;-77
2023/10/27 07:15:56;;;;;;;15.85;7.35;;;;;;;20.51;61.60;98759.33;2321719;76;51395;-76
2023/10/27 07:18:59;;;;;;;21.02;6.95;;;;;;;20.47;61.59;98755.48;2315897;76;50472;-77
2023/10/27 07:22:03;;;;;;;18.30;7.28;;;;;;;20.44;61.66;98755.43;2316121;76;51543;-78
2023/10/27 07:25:05;;;;;;;15.98;6.90;;;;;;;20.42;61.65;98763.75;2289770;76;51027;-78
2023/10/27 07:28:08;;;;;;;15.10;7.75;;;;;;;20.44;61.67;98764.83;2290410;76;51489;-77
2023/10/27 07:31:11;;;;;;;14.47;6.83;;;;;;;20.56;61.42;98775.03;2290287;76;51507;-77
2023/10/27 07:34:14;;;;;;;13.30;6.95;;;;;;;20.62;61.13;98767.33;2304234;75;52158;-78
2023/10/27 07:37:18;;;;;;;14.87;6.92;;;;;;;20.67;60.93;98755.86;2280356;76;51248;-78
2023/10/27 07:40:20;;;;;;;13.40;6.70;;;;;;;20.63;60.95;98755.55;2307096;75;23117;-78
2023/10/27 07:43:22;;;;;;;18.35;6.95;;;;;;;20.61;61.00;98755.50;2306432;77;51488;-78
2023/10/27 07:46:25;;;;;;;13.38;6.67;;;;;;;20.63;60.84;98758.23;2313983;75;51632;-78
2023/10/27 07:49:27;;;;;;;16.87;7.20;;;;;;;20.63;60.80;98755.55;2255269;77;52637;-77
2023/10/27 07:52:29;;;;;;;10.75;6.40;;;;;;;20.56;60.91;98752.73;2305656;77;50224;-77
2023/10/27 07:55:31;;;;;;;13.88;6.17;;;;;;;20.53;60.98;98752.66;2280138;77;50245;-77
2023/10/27 07:58:34;;;;;;;13.55;6.90;;;;;;;20.48;61.08;98755.25;2279982;77;51664;-77
2023/10/27 08:01:36;;;;;;;12.75;6.55;;;;;;;20.43;61.22;98753.28;2280377;77;50212;-77
2023/10/27 08:04:38;;;;;;;12.33;6.12;;;;;;;20.53;61.05;98759.91;2328501;75;50315;-77
2023/10/27 08:07:41;;;;;;;13.18;6.42;;;;;;;20.61;60.78;98757.66;2255522;77;51593;-76
2023/10/27 08:10:46;;;;;;;14.58;6.03;;;;;;;20.61;60.76;98762.22;2280312;77;51457;-76
2023/10/27 08:13:47;;;;;;;12.15;6.45;;;;;;;20.61;60.71;98758.19;2280494;77;22387;-77
2023/10/27 08:16:49;;;;;;;12.28;6.08;;;;;;;20.57;60.75;98753.00;2313868;75;50624;-78
2023/10/27 08:19:51;;;;;;;12.60;6.85;;;;;;;20.57;60.72;98734.19;2313884;77;51429;-77
2023/10/27 08:22:54;;;;;;;13.95;6.70;;;;;;;20.52;60.78;98728.70;2255356;77;51741;-78
2023/10/27 08:25:56;;;;;;;12.58;6.97;;;;;;;20.47;60.83;98730.77;2313985;77;51609;-78
2023/10/27 08:28:58;;;;;;;10.85;6.80;;;;;;;20.47;60.85;98733.98;2281107;77;50775;-79
2023/10/27 08:32:00;;;;;;;16.62;6.75;;;;;;;20.44;60.92;98728.56;2299959;75;51430;-78
2023/10/27 08:35:02;;;;;;;12.40;6.45;;;;;;;20.43;60.94;98728.30;2270378;77;51477;-78
2023/10/27 08:38:05;;;;;;;16.05;6.58;;;;;;;20.48;60.84;98732.41;2279892;77;50858;-77
2023/10/27 08:41:07;;;;;;;14.47;6.50;;;;;;;20.56;60.63;98730.70;2305043;77;50349;-78
2023/10/27 08:44:10;;;;;;;11.08;6.08;;;;;;;20.62;60.46;98730.25;2313351;77;50672;-79
2023/10/27 08:47:12;;;;;;;9.60;6.12;;;;;;;20.61;60.40;98737.50;2305632;75;50090;-78
2023/10/27 08:50:15;;;;;;;13.25;6.65;;;;;;;20.65;60.26;98743.19;2313701;77;51454;-78
2023/10/27 08:53:17;;;;;;;14.83;6.80;;;;;;;20.62;60.23;98748.52;2313378;77;50490;-79
2023/10/27 08:56:20;;;;;;;11.05;6.15;;;;;;;20.61;60.27;98741.53;2305543;75;51417;-78
2023/10/27 08:59:22;;;;;;;12.65;6.17;;;;;;;20.58;60.31;98749.27;2313770;77;51570;-78
2023/10/27 09:02:34;;;;;;;13.03;6.80;;;;;;;20.53;60.35;98736.53;2289117;75;52534;-78
2023/10/27 09:05:36;;;;;;;7.15;5.62;;;;;;;20.46;60.57;98742.58;2344541;75;51560;-78
2023/10/27 09:08:38;;;;;;;12.58;6.58;;;;;;;20.45;60.66;98746.33;2301256;75;51520;-77
2023/10/27 09:11:42;;;;;;;12.25;6.33;;;;;;;20.51;60.50;98742.67;2326795;75;51148;-78
2023/10/27 09:14:44;;;;;;;10.28;5.85;;;;;;;20.58;60.29;98740.67;2359099;74;50360;-77
2023/10/27 09:17:57;;;;;;;11.70;6.30;;;;;;;20.65;60.09;98739.16;2358965;74;50231;-76
2023/10/27 09:20:59;;;;;;;11.35;6.58;;;;;;;20.66;60.03;98739.47;2301894;75;51603;-77
2023/10/27 09:24:01;;;;;;;11.38;5.92;;;;;;;20.61;60.08;98744.22;2326601;75;50430;-77
2023/10/27 09:27:04;;;;;;;11.20;5.78;;;;;;;20.59;60.12;98736.92;2326303;74;50939;-77
2023/10/27 09:30:08;;;;;;;12.37;6.00;;;;;;;20.58;60.09;98731.81;2359088;75;51512;-78
2023/10/27 09:33:18;;;;;;;10.60;6.05;;;;;;;20.52;60.25;98738.10;2342898;74;51535;-77
2023/10/27 09:36:21;;;;;;;11.28;6.50;;;;;;;20.56;60.09;98734.73;2276605;75;52527;-78
2023/10/27 09:39:23;;;;;;;10.65;6.03;;;;;;;20.48;60.29;98735.63;2307906;77;50755;-77
2023/10/27 09:42:25;;;;;;;9.93;6.08;;;;;;;20.41;60.49;98741.14;2307682;77;50575;-78
2023/10/27 09:45:30;;;;;;;11.73;5.83;;;;;;;20.46;60.41;98738.55;2307907;77;51469;-78
2023/10/27 09:48:32;;;;;;;11.45;6.00;;;;;;;20.59;60.13;98742.83;2277094;77;51469;-78
2023/10/27 09:51:36;;;;;;;6.78;5.28;;;;;;;20.65;59.92;98743.19;2276352;77;51712;-77
2023/10/27 09:54:38;;;;;;;10.13;5.90;;;;;;;20.66;59.83;98736.24;2307691;77;51609;-78
2023/10/27 09:57:44;;;;;;;9.95;5.87;;;;;;;20.62;59.92;98740.46;2307845;75;50592;-78
2023/10/27 10:00:45;;;;;;;7.92;5.42;;;;;;;20.64;59.79;98739.70;2302521;77;22281;-77
2023/10/27 10:03:48;;;;;;;8.50;5.95;;;;;;;20.60;59.88;98745.29;2328250;75;51502;-77
2023/10/27 10:06:50;;;;;;;8.53;5.90;;;;;;;20.57;59.90;98739.56;2242609;77;51533;-77
2023/10/27 10:09:52;;;;;;;9.03;5.87;;;;;;;20.53;59.98;98739.22;2276031;78;50502;-78
2023/10/27 10:13:16;;;;;;;8.83;5.83;;;;;;;20.49;60.09;98738.05;2275791;77;51396;-77
2023/10/27 10:16:18;;;;;;;10.53;5.95;;;;;;;20.51;60.06;98733.27;2243514;77;49641;-78
2023/10/27 10:19:23;;;;;;;9.13;5.62;;;;;;;20.51;60.13;98737.30;2276188;78;50625;-78
2023/10/27 10:22:48;;;;;;;11.15;5.75;;;;;;;20.61;59.87;98729.97;2253846;78;51664;-77
2023/10/27 10:25:57;;;;;;;10.60;6.12;;;;;;;20.63;59.74;98719.27;2243461;78;52623;-78
2023/10/27 10:29:03;;;;;;;10.60;5.50;;;;;;;20.66;59.62;98717.43;2276229;78;51586;-77
2023/10/27 10:32:23;;;;;;;;;;;;;;;20.61;59.71;98716.00;2280862;75;52335;-78
2023/10/27 10:35:27;;;;;;;9.53;6.20;;;;;;;20.60;59.68;98718.42;2324244;75;50709;-77
2023/10/27 10:38:37;;;;;;;9.70;5.92;;;;;;;20.59;59.68;98711.39;2290627;76;50665;-78
2023/10/27 10:41:52;;;;;;;8.05;6.05;;;;;;;20.54;59.75;98712.66;2322478;76;50909;-77
2023/10/27 10:44:52;;;;;;;8.78;5.72;;;;;;;20.51;59.82;98718.48;2324018;75;21683;-77
2023/10/27 10:47:55;;;;;;;7.78;5.80;;;;;;;20.47;59.97;98715.98;2267234;76;50323;-78
2023/10/27 10:51:03;;;;;;;8.33;5.47;;;;;;;20.53;59.83;98719.60;2290911;76;52456;-77
2023/10/27 10:54:13;;;;;;;7.08;4.80;;;;;;;20.58;59.74;98714.34;2321362;75;50499;-77
2023/10/27 10:57:15;;;;;;;7.70;5.12;;;;;;;20.63;59.58;98715.23;2292048;76;50345;-76
2023/10/27 11:00:18;;;;;;;9.35;5.67;;;;;;;20.68;59.42;98712.33;2271030;76;51711;-77
2023/10/27 11:03:21;;;;;;;10.15;6.03;;;;;;;20.66;59.43;98713.40;2279748;77;50675;-77
2023/10/27 11:06:25;;;;;;;10.98;6.15;;;;;;;20.65;59.40;98713.13;2307586;75;51420;-77
2023/10/27 11:09:28;;;;;;;9.38;5.97;;;;;;;20.61;59.46;98703.91;2256150;77;51515;-79
2023/10/27 11:12:30;;;;;;;7.70;5.08;;;;;;;20.59;59.46;98704.68;2316160;77;50276;-78
2023/10/27 11:15:51;;;;;;;9.28;5.83;;;;;;;20.57;59.48;98705.45;2280330;77;51781;-78
2023/10/27 11:18:59;;;;;;;9.10;5.37;;;;;;;20.52;59.62;98710.70;2279739;77;22494;-79
2023/10/27 11:22:01;;;;;;;8.85;5.85;;;;;;;20.46;59.73;98709.00;2314081;77;51532;-78
2023/10/27 11:25:03;;;;;;;9.78;5.70;;;;;;;20.43;59.90;98712.98;2255539;77;52515;-78
2023/10/27 11:28:21;;;;;;;7.83;5.25;;;;;;;20.53;59.64;98712.34;2255246;77;51470;-78
2023/10/27 11:31:31;;;;;;;8.50;5.65;;;;;;;20.63;59.34;98712.55;2255873;77;51649;-78
2023/10/27 11:34:33;;;;;;;8.65;5.30;;;;;;;20.65;59.24;98708.26;2312564;75;51578;-77
2023/10/27 11:37:35;;;;;;;7.55;5.55;;;;;;;20.72;59.06;98720.20;2310153;75;50625;-78
2023/10/27 11:40:38;;;;;;;10.00;5.67;;;;;;;20.69;59.09;98722.04;2366285;75;51455;-77
2023/10/27 11:43:42;;;;;;;7.22;5.45;;;;;;;20.61;59.27;98727.29;2284577;75;49783;-78
2023/10/27 11:46:47;;;;;;;6.75;5.10;;;;;;;20.59;59.30;98728.05;2365693;74;50684;-78
2023/10/27 11:49:50;;;;;;;8.48;5.28;;;;;;;20.57;59.35;98732.84;2309994;75;50770;-78
2023/10/27 11:52:52;;;;;;;6.30;5.22;;;;;;;20.50;59.53;98726.78;2362888;75;50258;-78
2023/10/27 11:55:54;;;;;;;7.90;5.70;;;;;;;20.44;59.65;98725.88;2366450;75;50355;-79
2023/10/27 11:58:56;;;;;;;8.83;5.25;;;;;;;20.47;59.65;98725.39;2335808;75;51110;-78
2023/10/27 12:01:58;;;;;;;8.68;5.30;;;;;;;20.55;59.48;98722.86;2320632;75;51692;-78
2023/10/27 12:05:00;;;;;;;9.18;5.22;;;;;;;20.61;59.31;98721.37;2311464;76;51449;-79
2023/10/27 12:08:03;;;;;;;6.85;5.20;;;;;;;20.65;59.14;98723.88;2290091;76;52447;-78
2023/10/27 12:11:05;;;;;;;6.70;4.97;;;;;;;20.66;59.06;98722.80;2321960;76;51441;-78
2023/10/27 12:14:10;;;;;;;8.38;5.40;;;;;;;20.64;59.09;98727.60;2321656;76;51505;-78
2023/10/27 12:17:11;;;;;;;6.28;4.72;;;;;;;20.61;59.16;98724.59;2266462;75;22260;-78
2023/10/27 12:20:13;;;;;;;6.42;4.85;;;;;;;20.59;59.17;98726.70;2321867;76;50357;-78
2023/10/27 12:23:15;;;;;;;7.60;5.22;;;;;;;20.53;59.30;98712.88;2290004;75;51684;-78
2023/10/27 12:26:18;;;;;;;7.15;5.10;;;;;;;20.48;59.43;98726.23;2312986;75;50718;-78
2023/10/27 12:29:22;;;;;;;8.10;4.72;;;;;;;20.45;59.50;98721.63;2255043;77;50111;-78
2023/10/27 12:32:24;;;;;;;9.23;5.72;;;;;;;20.46;59.48;98722.43;2308011;76;22194;-78
2023/10/27 12:35:29;;;;;;;7.95;5.08;;;;;;;20.47;59.66;98720.55;2290589;77;50436;-79
2023/10/27 12:38:31;;;;;;;9.55;5.10;;;;;;;20.40;59.88;98723.41;2317584;75;51644;-78
2023/10/27 12:41:33;;;;;;;9.68;5.05;;;;;;;20.48;59.65;98723.01;2301907;76;50753;-78
2023/10/27 12:44:36;;;;;;;9.78;5.40;;;;;;;20.45;59.81;98723.50;2268987;75;51491;-78
2023/10/27 12:47:38;;;;;;;7.78;5.42;;;;;;;20.50;59.76;98724.09;2263278;77;50011;-78
2023/10/27 12:50:44;;;;;;;7.37;5.65;;;;;;;20.42;60.46;98723.45;2255445;77;50343;-77
2023/10/27 12:53:46;;;;;;;8.15;5.45;;;;;;;20.45;60.37;98727.53;2314001;75;22358;-77
2023/10/27 12:56:49;;;;;;;11.53;5.35;;;;;;;20.43;60.41;98727.75;2273529;75;50760;-78
2023/10/27 12:59:53;;;;;;;8.30;6.05;;;;;;;20.41;60.49;98731.74;2241729;78;50768;-77
2023/10/27 13:02:56;;;;;;;10.30;5.62;;;;;;;20.36;60.58;98727.63;2305965;75;50690;-79
2023/10/27 13:05:59;;;;;;;7.75;5.60;;;;;;;20.37;60.54;98735.95;2269777;75;50689;-77
2023/10/27 13:09:01;;;;;;;14.30;5.75;;;;;;;20.39;60.41;98729.28;2279352;75;51438;-77
2023/10/27 13:12:04;;;;;;;8.03;5.72;;;;;;;20.40;60.46;98727.44;2261637;78;52269;-79
2023/10/27 13:15:12;;;;;;;8.70;5.42;;;;;;;20.41;60.39;98732.55;2243259;78;51598;-79
2023/10/27 13:18:14;;;;;;;10.18;5.80;;;;;;;20.44;60.30;98723.19;2296492;75;51542;-77
2023/10/27 13:21:18;;;;;;;6.90;5.28;;;;;;;20.41;60.38;98727.71;2254773;76;50204;-79
2023/10/27 13:24:20;;;;;;;9.03;5.33;;;;;;;20.44;60.14;98725.88;2340597;76;24555;-77
2023/10/27 13:27:23;;;;;;;7.87;5.60;;;;;;;20.45;60.04;98726.19;2337133;75;50615;-78
2023/10/27 13:30:25;;;;;;;9.15;5.72;;;;;;;20.44;60.01;98729.91;2337307;75;51458;-77
2023/10/27 13:33:27;;;;;;;9.38;5.80;;;;;;;20.45;59.87;98734.24;2325348;75;51504;-77
2023/10/27 13:36:29;;;;;;;9.35;5.90;;;;;;;20.42;59.88;98731.52;2277330;75;52106;-79
2023/10/27 13:39:34;;;;;;;9.20;5.70;;;;;;;20.52;59.66;98740.25;2308582;77;50698;-79
2023/10/27 13:42:36;;;;;;;6.72;5.28;;;;;;;20.57;59.46;98739.56;2303109;77;50568;-79
2023/10/27 13:45:39;;;;;;;7.17;5.20;;;;;;;20.62;59.23;98740.46;2277381;77;51260;-79
2023/10/27 13:48:42;;;;;;;9.10;5.42;;;;;;;20.62;59.16;98740.46;2303641;76;50652;-79
2023/10/27 13:51:44;;;;;;;8.15;5.25;;;;;;;20.64;59.05;98741.04;2278166;77;51493;-78
2023/10/27 13:54:46;;;;;;;11.75;5.90;;;;;;;20.61;59.07;98742.87;2252076;77;50662;-78
2023/10/27 13:57:48;;;;;;;6.65;5.00;;;;;;;20.55;59.17;98734.95;2302051;76;51410;-78
2023/10/27 14:00:51;;;;;;;9.18;5.67;;;;;;;20.54;59.20;98740.02;2276044;77;49915;-78
2023/10/27 14:03:54;;;;;;;6.97;5.58;;;;;;;20.49;59.24;98738.05;2303998;75;51441;-78
2023/10/27 14:06:57;;;;;;;7.50;5.12;;;;;;;20.46;59.33;98749.30;2352667;74;50388;-79
2023/10/27 14:09:59;;;;;;;7.22;5.62;;;;;;;20.41;59.43;98751.35;2325921;75;52435;-78
2023/10/27 14:13:02;;;;;;;6.78;5.15;;;;;;;20.44;59.38;98748.71;2326066;75;51399;-78
2023/10/27 14:16:04;;;;;;;7.35;5.58;;;;;;;20.57;59.04;98751.66;2352788;75;50705;-78